createdAt,value
2019-05-30T00:00:16.845Z,3.20
2019-05-30T00:02:38.627Z,2.65
2019-05-30T00:05:07.462Z,2.85
2019-05-30T00:07:35.925Z,2.92
2019-05-30T00:10:06.378Z,3.00
2019-05-30T00:12:35.124Z,2.87
2019-05-30T00:15:06.476Z,2.77
2019-05-30T00:17:35.267Z,2.95
2019-05-30T00:20:05.943Z,2.80
2019-05-30T00:22:34.852Z,3.05
2019-05-30T00:25:06.274Z,3.08
2019-05-30T00:27:35.111Z,3.20
2019-05-30T00:30:04.227Z,2.77
2019-05-30T00:32:33.126Z,2.70
2019-05-30T00:35:02.082Z,3.02
2019-05-30T00:37:30.844Z,3.30
2019-05-30T00:39:59.876Z,3.10
2019-05-30T00:42:28.702Z,3.02
2019-05-30T00:44:57.891Z,3.27
2019-05-30T00:47:26.632Z,3.52
2019-05-30T00:49:56.226Z,3.65
2019-05-30T00:52:24.998Z,3.27
2019-05-30T00:54:53.656Z,3.12
2019-05-30T00:57:22.398Z,3.52
2019-05-30T00:59:51.248Z,3.58
2019-05-30T01:02:19.952Z,3.25
2019-05-30T01:04:48.635Z,3.58
2019-05-30T01:07:17.375Z,3.25
2019-05-30T01:09:45.946Z,3.77
2019-05-30T01:12:14.492Z,3.98
2019-05-30T01:14:43.377Z,3.27
2019-05-30T01:17:11.933Z,3.08
2019-05-30T01:19:40.722Z,3.08
2019-05-30T01:22:09.573Z,3.08
2019-05-30T01:24:38.188Z,3.70
2019-05-30T01:27:07.609Z,3.20
2019-05-30T01:29:36.226Z,3.67
2019-05-30T01:32:22.265Z,3.20
2019-05-30T01:34:51.037Z,3.33
2019-05-30T01:37:19.642Z,3.83
2019-05-30T01:39:48.358Z,4.30
2019-05-30T01:42:17.113Z,5.40
2019-05-30T01:44:45.775Z,5.60
2019-05-30T01:47:14.568Z,6.60
2019-05-30T01:49:43.371Z,6.40
2019-05-30T01:52:12.046Z,6.35
2019-05-30T01:54:40.799Z,6.17
2019-05-30T01:57:09.571Z,6.80
2019-05-30T01:59:38.040Z,6.37
2019-05-30T02:02:07.216Z,5.60
2019-05-30T02:04:36.039Z,5.25
2019-05-30T02:07:05.387Z,5.10
2019-05-30T02:09:34.111Z,6.33
2019-05-30T02:12:38.652Z,5.80
2019-05-30T02:15:07.865Z,5.70
2019-05-30T02:17:36.531Z,4.92
2019-05-30T02:20:07.944Z,4.62
2019-05-30T02:25:06.093Z,5.55
2019-05-30T02:27:34.709Z,6.17
2019-05-30T02:30:06.653Z,5.95
2019-05-30T02:32:35.371Z,5.85
2019-05-30T02:35:05.309Z,5.85
2019-05-30T02:37:35.370Z,6.53
2019-05-30T02:40:09.820Z,5.25
2019-05-30T02:42:37.381Z,6.12
2019-05-30T02:45:07.995Z,6.15
2019-05-30T02:47:36.899Z,5.95
2019-05-30T02:50:11.558Z,6.17
2019-05-30T02:52:40.326Z,6.15
2019-05-30T02:55:12.576Z,5.80
2019-05-30T02:57:40.653Z,5.65
2019-05-30T03:00:16.737Z,5.67
2019-05-30T03:02:41.434Z,6.97
2019-05-30T03:05:12.673Z,6.53
2019-05-30T03:07:40.740Z,5.72
2019-05-30T03:10:14.360Z,5.78
2019-05-30T03:12:40.393Z,5.80
2019-05-30T03:15:12.457Z,4.75
2019-05-30T03:17:40.189Z,5.22
2019-05-30T03:20:20.295Z,4.90
2019-05-30T03:22:40.622Z,5.40
2019-05-30T03:25:12.674Z,5.50
2019-05-30T03:27:40.834Z,5.65
2019-05-30T03:30:24.834Z,5.28
2019-05-30T03:35:24.048Z,5.05
2019-05-30T03:37:42.826Z,6.45
2019-05-30T03:40:11.852Z,5.97
2019-05-30T03:42:41.050Z,6.53
2019-05-30T03:45:11.911Z,6.87
2019-05-30T03:47:43.959Z,7.20
2019-05-30T03:50:17.448Z,7.78
2019-05-30T03:52:46.208Z,8.55
2019-05-30T03:55:17.946Z,9.40
2019-05-30T03:58:01.584Z,8.78
2019-05-30T04:00:39.010Z,8.40
2019-05-30T04:03:19.991Z,8.48
2019-05-30T04:05:54.539Z,8.30
2019-05-30T04:08:25.043Z,9.63
2019-05-30T04:10:56.485Z,9.95
2019-05-30T04:13:28.512Z,10.72
2019-05-30T04:15:57.706Z,10.10
2019-05-30T04:18:26.813Z,9.85
2019-05-30T04:20:55.899Z,10.38
2019-05-30T04:23:24.978Z,9.50
2019-05-30T04:25:53.974Z,10.20
2019-05-30T04:28:23.185Z,8.68
2019-05-30T04:30:52.262Z,9.00
2019-05-30T04:33:32.498Z,8.63
2019-05-30T04:35:52.267Z,8.77
2019-05-30T04:38:21.365Z,8.60
2019-05-30T04:40:50.469Z,9.90
2019-05-30T04:43:20.205Z,8.88
2019-05-30T04:45:49.590Z,8.55
2019-05-30T04:48:20.542Z,8.63
2019-05-30T04:50:49.426Z,8.90
2019-05-30T04:53:18.638Z,8.90
2019-05-30T04:55:49.641Z,8.63
2019-05-30T04:58:21.748Z,8.93
2019-05-30T05:00:49.697Z,8.73
2019-05-30T05:03:36.972Z,8.53
2019-05-30T05:05:49.889Z,8.40
2019-05-30T05:08:19.924Z,7.47
2019-05-30T05:10:49.057Z,8.10
2019-05-30T05:13:18.379Z,7.87
2019-05-30T05:15:47.577Z,8.73
2019-05-30T05:18:17.003Z,9.63
2019-05-30T05:20:45.947Z,8.93
2019-05-30T05:23:15.125Z,9.45
2019-05-30T05:25:59.495Z,8.90
2019-05-30T05:28:15.772Z,8.10
2019-05-30T05:30:45.022Z,8.13
2019-05-30T05:33:14.533Z,7.97
2019-05-30T05:35:43.838Z,8.40
2019-05-30T05:38:13.103Z,7.95
2019-05-30T05:40:42.274Z,7.87
2019-05-30T05:43:11.357Z,7.40
2019-05-30T05:45:40.499Z,6.42
2019-05-30T05:48:09.520Z,6.20
2019-05-30T05:50:38.684Z,6.87
2019-05-30T05:53:07.713Z,5.87
2019-05-30T05:55:36.819Z,5.40
2019-05-30T05:58:06.036Z,5.30
2019-05-30T06:00:35.117Z,5.25
2019-05-30T06:03:04.210Z,5.45
2019-05-30T06:05:33.387Z,4.95
2019-05-30T06:08:02.552Z,5.17
2019-05-30T06:10:31.820Z,4.60
2019-05-30T06:13:00.966Z,4.00
2019-05-30T06:15:29.959Z,2.42
2019-05-30T06:17:59.150Z,2.67
2019-05-30T06:20:28.452Z,2.30
2019-05-30T06:22:57.439Z,2.20
2019-05-30T06:25:30.363Z,1.95
2019-05-30T06:27:57.666Z,1.82
2019-05-30T06:30:26.856Z,1.90
2019-05-30T06:32:55.925Z,1.70
2019-05-30T06:35:25.154Z,1.67
2019-05-30T06:37:54.249Z,1.75
2019-05-30T06:40:23.721Z,1.60
2019-05-30T06:42:53.075Z,1.80
2019-05-30T06:45:24.070Z,1.52
2019-05-30T06:47:53.089Z,1.82
2019-05-30T06:50:22.568Z,1.77
2019-05-30T06:52:51.579Z,1.90
2019-05-30T06:55:21.110Z,1.77
2019-05-30T06:57:50.058Z,1.70
2019-05-30T07:00:19.882Z,1.70
2019-05-30T07:02:48.980Z,1.85
2019-05-30T07:05:18.324Z,1.50
2019-05-30T07:07:47.763Z,1.92
2019-05-30T07:10:17.087Z,1.65
2019-05-30T07:12:46.108Z,1.80
2019-05-30T07:15:15.810Z,1.57
2019-05-30T07:17:44.948Z,1.82
2019-05-30T07:20:14.234Z,1.92
2019-05-30T07:22:43.276Z,1.60
2019-05-30T07:25:13.161Z,1.60
2019-05-30T07:27:42.301Z,1.90
2019-05-30T07:30:11.567Z,1.80
2019-05-30T07:32:40.776Z,2.20
2019-05-30T07:35:10.919Z,1.60
2019-05-30T07:37:40.002Z,1.77
2019-05-30T07:40:10.556Z,1.98
2019-05-30T07:42:39.622Z,1.80
2019-05-30T07:45:10.874Z,1.70
2019-05-30T07:47:39.910Z,1.72
2019-05-30T07:50:10.867Z,1.55
2019-05-30T07:52:40.006Z,1.65
2019-05-30T07:55:12.328Z,2.00
2019-05-30T07:57:41.860Z,1.55
2019-05-30T08:00:15.811Z,2.00
2019-05-30T08:02:45.111Z,1.50
2019-05-30T08:05:24.295Z,2.02
2019-05-30T08:07:46.160Z,1.47
2019-05-30T08:10:16.264Z,2.00
2019-05-30T08:12:45.504Z,2.10
2019-05-30T08:15:15.040Z,1.87
2019-05-30T08:17:44.559Z,1.62
2019-05-30T08:20:14.224Z,2.00
2019-05-30T08:22:43.316Z,1.80
2019-05-30T08:25:13.729Z,1.80
2019-05-30T08:27:42.800Z,2.17
2019-05-30T08:30:14.132Z,2.10
2019-05-30T08:32:45.021Z,1.75
2019-05-30T08:35:14.555Z,1.77
2019-05-30T08:37:43.645Z,2.12
2019-05-30T08:40:13.665Z,2.08
2019-05-30T08:42:43.075Z,2.25
2019-05-30T08:45:13.063Z,1.90
2019-05-30T08:47:41.965Z,1.98
2019-05-30T08:50:13.071Z,1.87
2019-05-30T08:52:42.244Z,2.12
2019-05-30T08:55:13.216Z,1.70
2019-05-30T08:57:42.296Z,1.50
2019-05-30T09:00:14.006Z,1.55
2019-05-30T09:02:43.158Z,1.40
2019-05-30T09:05:12.403Z,1.47
2019-05-30T09:07:42.902Z,1.22
2019-05-30T09:10:12.448Z,1.50
2019-05-30T09:12:45.228Z,1.62
2019-05-30T09:15:15.017Z,1.20
2019-05-30T09:17:44.799Z,1.10
2019-05-30T09:20:15.658Z,1.20
2019-05-30T09:22:45.546Z,1.30
2019-05-30T09:25:17.162Z,1.40
2019-05-30T09:30:16.912Z,1.22
2019-05-30T09:32:46.997Z,1.30
2019-05-30T09:35:16.812Z,1.32
2019-05-30T09:37:46.080Z,1.20
2019-05-30T09:40:15.672Z,1.07
2019-05-30T09:42:46.621Z,1.17
2019-05-30T09:45:17.893Z,1.07
2019-05-30T09:47:49.200Z,1.15
2019-05-30T09:50:18.830Z,1.52
2019-05-30T09:52:49.417Z,1.17
2019-05-30T09:55:21.020Z,1.00
2019-05-30T09:57:50.074Z,1.00
2019-05-30T10:00:21.506Z,1.10
2019-05-30T10:02:50.712Z,1.15
2019-05-30T10:05:24.180Z,1.35
2019-05-30T10:07:52.834Z,1.20
2019-05-30T10:10:23.200Z,1.17
2019-05-30T10:12:52.648Z,1.80
2019-05-30T10:15:22.245Z,1.12
2019-05-30T10:17:53.853Z,1.40
2019-05-30T10:20:22.296Z,1.10
2019-05-30T10:22:53.264Z,1.27
2019-05-30T10:25:22.380Z,1.42
2019-05-30T10:27:54.111Z,1.05
2019-05-30T10:30:22.488Z,1.40
2019-05-30T10:32:52.037Z,1.25
2019-05-30T10:35:21.367Z,1.42
2019-05-30T10:37:50.955Z,1.35
2019-05-30T10:40:20.382Z,1.47
2019-05-30T10:42:51.082Z,1.50
2019-05-30T10:45:20.595Z,1.45
2019-05-30T10:47:49.723Z,1.55
2019-05-30T10:50:19.137Z,1.22
2019-05-30T10:52:49.304Z,1.40
2019-05-30T10:55:19.266Z,1.40
2019-05-30T10:57:49.907Z,1.32
2019-05-30T11:00:20.470Z,1.25
2019-05-30T11:02:51.079Z,1.43
2019-05-30T11:05:20.739Z,1.40
2019-05-30T11:08:07.457Z,1.20
2019-05-30T11:10:41.468Z,1.00
2019-05-30T11:13:13.166Z,1.15
2019-05-30T11:15:42.234Z,1.00
2019-05-30T11:18:11.920Z,1.20
2019-05-30T11:20:41.240Z,1.12
2019-05-30T11:23:10.344Z,1.00
2019-05-30T11:25:39.666Z,1.20
2019-05-30T11:28:08.864Z,1.10
2019-05-30T11:30:38.064Z,1.30
2019-05-30T11:33:07.375Z,1.20
2019-05-30T11:35:37.663Z,1.17
2019-05-30T11:38:06.786Z,1.00
2019-05-30T11:40:36.423Z,1.07
2019-05-30T11:43:05.757Z,1.10
2019-05-30T11:45:34.936Z,0.80
2019-05-30T11:48:04.142Z,0.90
2019-05-30T11:50:33.237Z,0.90
2019-05-30T11:53:02.275Z,1.10
2019-05-30T11:55:31.757Z,0.90
2019-05-30T11:58:00.720Z,0.70
2019-05-30T12:00:29.960Z,0.90
2019-05-30T12:02:59.224Z,1.00
2019-05-30T12:05:28.553Z,0.90
2019-05-30T12:07:58.835Z,0.80
2019-05-30T12:10:28.219Z,1.20
2019-05-30T12:12:57.445Z,0.75
2019-05-30T12:15:26.775Z,0.88
2019-05-30T12:17:55.840Z,0.53
2019-05-30T12:20:24.980Z,0.60
2019-05-30T12:22:54.130Z,0.70
2019-05-30T12:25:23.220Z,0.80
2019-05-30T12:27:52.333Z,0.80
2019-05-30T12:30:22.837Z,0.90
2019-05-30T12:32:52.434Z,1.00
2019-05-30T12:35:23.618Z,0.70
2019-05-30T12:37:57.154Z,0.70
2019-05-30T12:40:24.403Z,0.72
2019-05-30T12:42:56.334Z,0.82
2019-05-30T12:45:24.543Z,0.68
2019-05-30T12:47:53.593Z,0.65
2019-05-30T12:50:23.068Z,0.80
2019-05-30T12:52:53.344Z,0.68
2019-05-30T12:55:22.942Z,0.50
2019-05-30T12:57:52.271Z,0.55
2019-05-30T13:00:24.233Z,0.80
2019-05-30T13:02:54.638Z,0.40
2019-05-30T13:05:23.794Z,0.30
2019-05-30T13:07:53.017Z,0.70
2019-05-30T13:10:24.243Z,0.60
2019-05-30T13:15:21.838Z,0.72
2019-05-30T13:17:50.892Z,0.72
2019-05-30T13:20:20.438Z,0.85
2019-05-30T13:22:49.602Z,0.75
2019-05-30T13:25:19.423Z,0.72
2019-05-30T13:27:48.593Z,0.60
2019-05-30T13:30:18.279Z,0.80
2019-05-30T13:32:47.410Z,0.60
2019-05-30T13:35:17.588Z,0.70
2019-05-30T13:37:46.796Z,0.78
2019-05-30T13:40:24.832Z,0.90
2019-05-30T13:42:49.462Z,0.72
2019-05-30T13:45:18.965Z,0.70
2019-05-30T13:47:48.037Z,0.65
2019-05-30T13:50:18.946Z,0.70
2019-05-30T13:52:48.248Z,0.70
2019-05-30T13:55:17.569Z,0.62
2019-05-30T13:57:47.565Z,0.62
2019-05-30T14:00:18.334Z,0.57
2019-05-30T14:02:47.499Z,0.57
2019-05-30T14:05:17.147Z,0.60
2019-05-30T14:07:46.308Z,0.55
2019-05-30T14:10:15.686Z,0.62
2019-05-30T14:12:45.018Z,0.65
2019-05-30T14:15:15.412Z,0.60
2019-05-30T14:17:44.429Z,0.60
2019-05-30T14:20:14.363Z,0.68
2019-05-30T14:22:43.401Z,0.70
2019-05-30T14:25:14.448Z,0.70
2019-05-30T14:27:43.608Z,0.70
2019-05-30T14:30:14.214Z,0.70
2019-05-30T14:32:43.414Z,0.80
2019-05-30T14:35:13.907Z,0.80
2019-05-30T14:37:43.292Z,0.68
2019-05-30T14:40:14.329Z,0.90
2019-05-30T14:42:43.536Z,0.90
2019-05-30T14:45:14.957Z,0.72
2019-05-30T14:47:44.257Z,0.90
2019-05-30T14:50:13.754Z,0.80
2019-05-30T14:52:43.125Z,0.98
2019-05-30T14:55:13.261Z,0.80
2019-05-30T14:57:42.691Z,0.70
2019-05-30T15:00:18.466Z,0.70
2019-05-30T15:02:47.573Z,0.93
2019-05-30T15:05:18.316Z,0.85
2019-05-30T15:07:47.402Z,0.90
2019-05-30T15:10:17.119Z,0.85
2019-05-30T15:12:46.282Z,1.02
2019-05-30T15:15:18.451Z,0.82
2019-05-30T15:17:47.247Z,0.90
2019-05-30T15:20:17.812Z,0.90
2019-05-30T15:22:47.254Z,0.90
2019-05-30T15:25:18.042Z,0.98
2019-05-30T15:27:47.586Z,0.90
2019-05-30T15:30:17.152Z,0.80
2019-05-30T15:32:46.213Z,0.75
2019-05-30T15:35:19.110Z,0.68
2019-05-30T15:37:49.677Z,0.70
2019-05-30T15:40:19.889Z,0.68
2019-05-30T15:42:52.938Z,0.90
2019-05-30T15:45:19.806Z,1.00
2019-05-30T15:47:48.912Z,0.65
2019-05-30T15:50:18.893Z,0.80
2019-05-30T15:52:48.246Z,1.07
2019-05-30T15:55:17.821Z,0.80
2019-05-30T15:57:47.239Z,0.78
2019-05-30T16:00:17.941Z,0.88
2019-05-30T16:02:47.348Z,0.70
2019-05-30T16:05:18.692Z,0.65
2019-05-30T16:07:47.825Z,0.50
2019-05-30T16:10:17.075Z,0.50
2019-05-30T16:12:46.143Z,0.80
2019-05-30T16:15:17.491Z,0.60
2019-05-30T16:17:46.725Z,0.80
2019-05-30T16:20:16.067Z,0.78
2019-05-30T16:22:45.332Z,0.75
2019-05-30T16:25:15.631Z,0.70
2019-05-30T16:27:44.943Z,0.63
2019-05-30T16:30:19.741Z,0.62
2019-05-30T16:32:45.383Z,0.80
2019-05-30T16:35:15.903Z,0.80
2019-05-30T16:37:45.095Z,0.90
2019-05-30T16:40:16.439Z,0.95
2019-05-30T16:42:45.813Z,0.60
2019-05-30T16:45:20.300Z,0.70
2019-05-30T16:47:49.146Z,0.70
2019-05-30T16:50:18.952Z,0.93
2019-05-30T16:52:48.240Z,0.60
2019-05-30T16:55:17.580Z,0.70
2019-05-30T16:57:46.707Z,0.95
2019-05-30T17:00:17.601Z,0.80
2019-05-30T17:02:46.917Z,0.60
2019-05-30T17:05:16.303Z,1.00
2019-05-30T17:07:48.482Z,0.90
2019-05-30T17:10:25.590Z,0.80
2019-05-30T17:12:48.335Z,0.80
2019-05-30T17:15:17.801Z,0.78
2019-05-30T17:17:47.156Z,0.85
2019-05-30T17:20:16.810Z,0.60
2019-05-30T17:22:45.945Z,0.80
2019-05-30T17:25:15.106Z,0.88
2019-05-30T17:27:44.388Z,0.72
2019-05-30T17:30:15.446Z,0.80
2019-05-30T17:32:44.739Z,0.80
2019-05-30T17:35:14.020Z,0.78
2019-05-30T17:37:43.102Z,1.05
2019-05-30T17:40:13.505Z,0.60
2019-05-30T17:42:42.858Z,0.80
2019-05-30T17:45:13.536Z,0.88
2019-05-30T17:47:43.705Z,0.90
2019-05-30T17:50:13.334Z,0.60
2019-05-30T17:52:42.630Z,0.60
2019-05-30T17:55:13.456Z,0.68
2019-05-30T17:57:42.616Z,0.68
2019-05-30T18:00:16.441Z,0.70
2019-05-30T18:02:45.563Z,0.70
2019-05-30T18:05:16.139Z,0.70
2019-05-30T18:07:46.303Z,0.80
2019-05-30T18:10:15.798Z,0.82
2019-05-30T18:12:45.080Z,0.90
2019-05-30T18:15:15.649Z,0.70
2019-05-30T18:17:44.874Z,0.80
2019-05-30T18:20:14.344Z,0.80
2019-05-30T18:22:43.474Z,0.82
2019-05-30T18:25:13.088Z,0.70
2019-05-30T18:27:42.075Z,0.70
2019-05-30T18:30:13.216Z,0.72
2019-05-30T18:32:42.431Z,0.68
2019-05-30T18:35:12.206Z,0.60
2019-05-30T18:37:41.386Z,0.70
2019-05-30T18:40:11.951Z,0.72
2019-05-30T18:42:41.164Z,0.90
2019-05-30T18:45:11.250Z,0.98
2019-05-30T18:47:40.361Z,0.90
2019-05-30T18:50:10.848Z,0.65
2019-05-30T18:52:40.138Z,0.90
2019-05-30T18:55:09.788Z,1.00
2019-05-30T18:57:39.015Z,0.82
2019-05-30T19:00:10.240Z,0.80
2019-05-30T19:02:40.155Z,0.95
2019-05-30T19:05:10.216Z,1.00
2019-05-30T19:07:39.411Z,0.82
2019-05-30T19:10:09.069Z,0.90
2019-05-30T19:12:38.261Z,0.90
2019-05-30T19:15:07.991Z,0.90
2019-05-30T19:17:37.277Z,0.80
2019-05-30T19:20:07.471Z,0.80
2019-05-30T19:22:36.744Z,1.10
2019-05-30T19:25:09.013Z,0.90
2019-05-30T19:27:38.625Z,1.27
2019-05-30T19:30:11.163Z,1.27
2019-05-30T19:32:40.254Z,1.10
2019-05-30T19:35:10.170Z,1.12
2019-05-30T19:37:39.300Z,1.20
2019-05-30T19:40:09.150Z,1.00
2019-05-30T19:42:38.214Z,1.10
2019-05-30T19:45:09.541Z,1.10
2019-05-30T19:47:38.928Z,1.10
2019-05-30T19:50:09.499Z,1.10
2019-05-30T19:52:39.158Z,1.10
2019-05-30T19:55:08.285Z,1.00
2019-05-30T19:57:37.806Z,1.15
2019-05-30T20:00:07.686Z,0.93
2019-05-30T20:02:36.260Z,1.52
2019-05-30T20:05:07.701Z,1.60
2019-05-30T20:10:06.600Z,1.35
2019-05-30T20:12:35.281Z,1.30
2019-05-30T20:15:06.289Z,1.30
2019-05-30T20:17:35.465Z,1.20
2019-05-30T20:20:05.885Z,1.20
2019-05-30T20:22:35.925Z,1.07
2019-05-30T20:25:07.022Z,1.10
2019-05-30T20:27:36.697Z,1.40
2019-05-30T20:30:08.710Z,1.82
2019-05-30T20:32:38.655Z,1.40
2019-05-30T20:35:07.690Z,1.30
2019-05-30T20:37:36.814Z,1.20
2019-05-30T20:40:06.816Z,1.10
2019-05-30T20:42:35.446Z,1.20
2019-05-30T20:45:09.591Z,1.10
2019-05-30T20:47:38.679Z,0.98
2019-05-30T20:50:08.312Z,1.40
2019-05-30T20:52:39.919Z,1.12
2019-05-30T20:55:08.623Z,1.32
2019-05-30T20:57:38.351Z,1.17
2019-05-30T21:00:09.682Z,1.22
2019-05-30T21:02:39.108Z,1.20
2019-05-30T21:05:09.681Z,1.27
2019-05-30T21:07:39.816Z,1.20
2019-05-30T21:10:08.843Z,1.30
2019-05-30T21:12:54.337Z,1.22
2019-05-30T21:15:09.619Z,1.62
2019-05-30T21:17:39.635Z,1.20
2019-05-30T21:20:11.366Z,1.35
2019-05-30T21:25:09.125Z,1.30
2019-05-30T21:27:39.048Z,1.50
2019-05-30T21:30:08.145Z,1.40
2019-05-30T21:32:37.518Z,1.15
2019-05-30T21:35:07.462Z,1.52
2019-05-30T21:37:37.497Z,1.80
2019-05-30T21:40:07.962Z,1.70
2019-05-30T21:42:51.559Z,1.70
2019-05-30T21:45:07.951Z,1.45
2019-05-30T21:47:36.488Z,1.47
2019-05-30T21:50:08.517Z,1.62
2019-05-30T21:52:37.211Z,1.65
2019-05-30T21:55:06.611Z,1.40
2019-05-30T21:57:35.382Z,1.60
2019-05-30T22:00:07.004Z,1.30
2019-05-30T22:02:35.759Z,1.42
2019-05-30T22:05:04.991Z,1.27
2019-05-30T22:07:33.801Z,1.10
2019-05-30T22:10:02.406Z,1.12
2019-05-30T22:12:31.007Z,0.93
2019-05-30T22:14:59.765Z,1.10
2019-05-30T22:17:28.340Z,1.27
2019-05-30T22:19:57.226Z,1.50
2019-05-30T22:22:25.951Z,1.30
2019-05-30T22:24:54.640Z,1.60
2019-05-30T22:27:23.231Z,1.32
2019-05-30T22:29:52.637Z,1.15
2019-05-30T22:32:21.566Z,1.37
2019-05-30T22:34:50.859Z,1.47
2019-05-30T22:37:19.622Z,1.50
2019-05-30T22:39:48.964Z,1.32
2019-05-30T22:42:17.742Z,1.30
2019-05-30T22:44:46.226Z,1.70
2019-05-30T22:47:14.957Z,1.30
2019-05-30T22:49:44.649Z,1.27
2019-05-30T22:52:13.341Z,1.27
2019-05-30T22:54:42.094Z,1.30
2019-05-30T22:57:10.758Z,1.37
2019-05-30T22:59:39.475Z,1.70
2019-05-30T23:02:08.138Z,1.32
2019-05-30T23:04:36.759Z,1.40
2019-05-30T23:07:05.571Z,1.30
2019-05-30T23:09:34.286Z,1.40
2019-05-30T23:12:02.937Z,1.45
2019-05-30T23:14:31.634Z,1.50
2019-05-30T23:17:00.274Z,1.53
2019-05-30T23:19:29.024Z,1.50
2019-05-30T23:21:57.774Z,1.67
2019-05-30T23:24:26.337Z,1.47
2019-05-30T23:26:55.869Z,1.77
2019-05-30T23:29:24.495Z,1.62
2019-05-30T23:31:54.100Z,1.45
2019-05-30T23:34:22.690Z,1.80
2019-05-30T23:36:52.247Z,1.62
2019-05-30T23:39:21.124Z,1.55
2019-05-30T23:41:50.915Z,1.60
2019-05-30T23:44:19.616Z,1.90
2019-05-30T23:46:49.338Z,1.50
2019-05-30T23:49:18.003Z,1.82
2019-05-30T23:51:46.597Z,1.75
2019-05-30T23:54:16.753Z,1.50
2019-05-30T23:56:45.498Z,2.00
2019-05-30T23:59:14.257Z,1.52
